sensor_id;sensor_type;location;lat;lon;timestamp;temperature;humidity
15749;DHT22;7976;52.526;13.326;2022-12-20T00:01:09;4.40;99.90
15749;DHT22;7976;52.526;13.326;2022-12-20T00:03:38;4.40;99.90
15749;DHT22;7976;52.526;13.326;2022-12-20T00:06:05;4.40;99.90
15749;DHT22;7976;52.526;13.326;2022-12-20T00:08:33;4.40;99.90
15749;DHT22;7976;52.526;13.326;2022-12-20T00:11:02;4.40;99.90
15749;DHT22;7976;52.526;13.326;2022-12-20T00:13:30;4.40;99.90
15749;DHT22;7976;52.526;13.326;2022-12-20T00:16:05;4.50;99.90
15749;DHT22;7976;52.526;13.326;2022-12-20T00:18:35;4.40;99.90
15749;DHT22;7976;52.526;13.326;2022-12-20T00:21:05;4.50;99.90
15749;DHT22;7976;52.526;13.326;2022-12-20T00:23:33;4.50;99.90
15749;DHT22;7976;52.526;13.326;2022-12-20T00:26:03;4.50;99.90
15749;DHT22;7976;52.526;13.326;2022-12-20T00:28:30;4.60;99.90
15749;DHT22;7976;52.526;13.326;2022-12-20T00:30:58;4.60;99.90
15749;DHT22;7976;52.526;13.326;2022-12-20T00:33:25;4.60;99.90
15749;DHT22;7976;52.526;13.326;2022-12-20T00:35:55;4.60;99.90
15749;DHT22;7976;52.526;13.326;2022-12-20T00:38:22;4.60;99.90
15749;DHT22;7976;52.526;13.326;2022-12-20T00:40:58;4.60;99.90
15749;DHT22;7976;52.526;13.326;2022-12-20T00:43:26;4.60;99.90
15749;DHT22;7976;52.526;13.326;2022-12-20T00:45:53;4.60;99.90
15749;DHT22;7976;52.526;13.326;2022-12-20T00:48:20;4.60;99.90
15749;DHT22;7976;52.526;13.326;2022-12-20T00:50:47;4.60;99.90
15749;DHT22;7976;52.526;13.326;2022-12-20T00:53:15;4.60;99.90
15749;DHT22;7976;52.526;13.326;2022-12-20T00:55:42;4.60;99.90
15749;DHT22;7976;52.526;13.326;2022-12-20T00:58:10;4.60;99.90
15749;DHT22;7976;52.526;13.326;2022-12-20T01:00:38;4.50;99.90
15749;DHT22;7976;52.526;13.326;2022-12-20T01:03:06;4.60;99.90
15749;DHT22;7976;52.526;13.326;2022-12-20T01:05:34;4.60;99.90
15749;DHT22;7976;52.526;13.326;2022-12-20T01:08:01;4.60;99.90
15749;DHT22;7976;52.526;13.326;2022-12-20T01:10:29;4.60;99.90
15749;DHT22;7976;52.526;13.326;2022-12-20T01:12:58;4.60;99.90
15749;DHT22;7976;52.526;13.326;2022-12-20T01:15:25;4.60;99.90
15749;DHT22;7976;52.526;13.326;2022-12-20T01:17:51;4.60;99.90
15749;DHT22;7976;52.526;13.326;2022-12-20T01:20:18;4.70;99.90
15749;DHT22;7976;52.526;13.326;2022-12-20T01:22:45;4.70;99.90
15749;DHT22;7976;52.526;13.326;2022-12-20T01:25:12;4.70;99.90
15749;DHT22;7976;52.526;13.326;2022-12-20T01:27:40;4.70;99.90
15749;DHT22;7976;52.526;13.326;2022-12-20T01:30:08;4.70;99.90
15749;DHT22;7976;52.526;13.326;2022-12-20T01:32:35;4.80;99.90
15749;DHT22;7976;52.526;13.326;2022-12-20T01:35:02;4.80;99.90
15749;DHT22;7976;52.526;13.326;2022-12-20T01:37:30;4.80;99.90
15749;DHT22;7976;52.526;13.326;2022-12-20T01:39:57;4.80;99.90
15749;DHT22;7976;52.526;13.326;2022-12-20T01:42:24;4.80;99.90
15749;DHT22;7976;52.526;13.326;2022-12-20T01:44:55;4.80;99.90
15749;DHT22;7976;52.526;13.326;2022-12-20T01:47:25;4.80;99.90
15749;DHT22;7976;52.526;13.326;2022-12-20T01:49:55;4.90;99.90
15749;DHT22;7976;52.526;13.326;2022-12-20T01:52:30;4.90;99.90
15749;DHT22;7976;52.526;13.326;2022-12-20T01:55:06;4.80;99.90
15749;DHT22;7976;52.526;13.326;2022-12-20T01:57:42;4.80;99.90
15749;DHT22;7976;52.526;13.326;2022-12-20T02:00:15;4.80;99.90
15749;DHT22;7976;52.526;13.326;2022-12-20T02:02:45;4.80;99.90
15749;DHT22;7976;52.526;13.326;2022-12-20T02:05:13;4.80;99.90
15749;DHT22;7976;52.526;13.326;2022-12-20T02:07:45;4.80;99.90
15749;DHT22;7976;52.526;13.326;2022-12-20T02:10:16;4.80;99.90
15749;DHT22;7976;52.526;13.326;2022-12-20T02:12:45;4.70;99.90
15749;DHT22;7976;52.526;13.326;2022-12-20T02:15:34;4.70;99.90
15749;DHT22;7976;52.526;13.326;2022-12-20T02:18:15;4.70;99.90
15749;DHT22;7976;52.526;13.326;2022-12-20T02:21:11;4.70;99.90
15749;DHT22;7976;52.526;13.326;2022-12-20T02:24:12;4.70;99.90
15749;DHT22;7976;52.526;13.326;2022-12-20T02:27:26;4.70;99.90
15749;DHT22;7976;52.526;13.326;2022-12-20T02:30:08;4.70;99.90
15749;DHT22;7976;52.526;13.326;2022-12-20T02:32:41;4.80;99.90
15749;DHT22;7976;52.526;13.326;2022-12-20T02:35:17;4.80;99.90
15749;DHT22;7976;52.526;13.326;2022-12-20T02:37:48;4.80;99.90
15749;DHT22;7976;52.526;13.326;2022-12-20T02:40:19;4.80;99.90
15749;DHT22;7976;52.526;13.326;2022-12-20T02:42:51;4.80;99.90
15749;DHT22;7976;52.526;13.326;2022-12-20T02:45:26;4.80;99.90
15749;DHT22;7976;52.526;13.326;2022-12-20T02:48:00;4.80;99.90
15749;DHT22;7976;52.526;13.326;2022-12-20T02:50:37;4.80;99.90
15749;DHT22;7976;52.526;13.326;2022-12-20T02:53:06;4.90;99.90
15749;DHT22;7976;52.526;13.326;2022-12-20T02:55:41;4.90;99.90
15749;DHT22;7976;52.526;13.326;2022-12-20T02:58:19;4.90;99.90
15749;DHT22;7976;52.526;13.326;2022-12-20T03:00:55;4.90;99.90
15749;DHT22;7976;52.526;13.326;2022-12-20T03:03:28;5.00;99.90
15749;DHT22;7976;52.526;13.326;2022-12-20T03:05:56;5.00;99.90
15749;DHT22;7976;52.526;13.326;2022-12-20T03:08:24;5.00;99.90
15749;DHT22;7976;52.526;13.326;2022-12-20T03:10:52;5.00;99.90
15749;DHT22;7976;52.526;13.326;2022-12-20T03:13:21;5.00;99.90
15749;DHT22;7976;52.526;13.326;2022-12-20T03:16:03;5.00;99.90
15749;DHT22;7976;52.526;13.326;2022-12-20T03:18:31;5.00;99.90
15749;DHT22;7976;52.526;13.326;2022-12-20T03:20:58;5.00;99.90
15749;DHT22;7976;52.526;13.326;2022-12-20T03:23:24;5.00;99.90
15749;DHT22;7976;52.526;13.326;2022-12-20T03:25:51;5.00;99.90
15749;DHT22;7976;52.526;13.326;2022-12-20T03:28:26;5.00;99.90
15749;DHT22;7976;52.526;13.326;2022-12-20T03:30:54;5.10;99.90
15749;DHT22;7976;52.526;13.326;2022-12-20T03:33:22;5.10;99.90
15749;DHT22;7976;52.526;13.326;2022-12-20T03:35:49;5.20;99.90
15749;DHT22;7976;52.526;13.326;2022-12-20T03:38:17;5.20;99.90
15749;DHT22;7976;52.526;13.326;2022-12-20T03:40:44;5.20;99.90
15749;DHT22;7976;52.526;13.326;2022-12-20T03:43:14;5.30;99.90
15749;DHT22;7976;52.526;13.326;2022-12-20T03:45:41;5.30;99.90
15749;DHT22;7976;52.526;13.326;2022-12-20T03:48:08;5.30;99.90
15749;DHT22;7976;52.526;13.326;2022-12-20T03:50:36;5.30;99.90
15749;DHT22;7976;52.526;13.326;2022-12-20T03:53:03;5.30;99.90
15749;DHT22;7976;52.526;13.326;2022-12-20T03:55:31;5.30;99.90
15749;DHT22;7976;52.526;13.326;2022-12-20T03:57:59;5.20;99.90
15749;DHT22;7976;52.526;13.326;2022-12-20T04:00:32;5.30;99.90
15749;DHT22;7976;52.526;13.326;2022-12-20T04:03:19;5.20;99.90
15749;DHT22;7976;52.526;13.326;2022-12-20T04:05:47;5.20;99.90
15749;DHT22;7976;52.526;13.326;2022-12-20T04:08:14;5.10;99.90
15749;DHT22;7976;52.526;13.326;2022-12-20T04:10:40;5.10;99.90
15749;DHT22;7976;52.526;13.326;2022-12-20T04:13:23;5.00;99.90
15749;DHT22;7976;52.526;13.326;2022-12-20T04:15:50;5.00;99.90
15749;DHT22;7976;52.526;13.326;2022-12-20T04:18:18;5.00;99.90
15749;DHT22;7976;52.526;13.326;2022-12-20T04:20:52;5.00;99.90
15749;DHT22;7976;52.526;13.326;2022-12-20T04:23:24;5.00;99.90
15749;DHT22;7976;52.526;13.326;2022-12-20T04:25:51;5.00;99.90
15749;DHT22;7976;52.526;13.326;2022-12-20T04:28:18;5.00;99.90
15749;DHT22;7976;52.526;13.326;2022-12-20T04:30:45;4.90;99.90
15749;DHT22;7976;52.526;13.326;2022-12-20T04:33:17;4.90;99.90
15749;DHT22;7976;52.526;13.326;2022-12-20T04:35:44;4.90;99.90
15749;DHT22;7976;52.526;13.326;2022-12-20T04:38:12;4.90;99.90
15749;DHT22;7976;52.526;13.326;2022-12-20T04:40:39;4.90;99.90
15749;DHT22;7976;52.526;13.326;2022-12-20T04:43:07;4.90;99.90
15749;DHT22;7976;52.526;13.326;2022-12-20T04:45:34;4.90;99.90
15749;DHT22;7976;52.526;13.326;2022-12-20T04:48:01;5.00;99.90
15749;DHT22;7976;52.526;13.326;2022-12-20T04:50:35;5.00;99.90
15749;DHT22;7976;52.526;13.326;2022-12-20T04:55:55;5.00;99.90
15749;DHT22;7976;52.526;13.326;2022-12-20T04:58:23;4.90;99.90
15749;DHT22;7976;52.526;13.326;2022-12-20T05:00:50;4.90;99.90
15749;DHT22;7976;52.526;13.326;2022-12-20T05:03:23;4.90;99.90
15749;DHT22;7976;52.526;13.326;2022-12-20T05:05:51;4.80;99.90
15749;DHT22;7976;52.526;13.326;2022-12-20T05:08:18;4.80;99.90
15749;DHT22;7976;52.526;13.326;2022-12-20T05:10:49;4.80;99.90
15749;DHT22;7976;52.526;13.326;2022-12-20T05:13:17;4.80;99.90
15749;DHT22;7976;52.526;13.326;2022-12-20T05:15:50;4.90;99.90
15749;DHT22;7976;52.526;13.326;2022-12-20T05:18:22;4.90;99.90
15749;DHT22;7976;52.526;13.326;2022-12-20T05:20:56;4.90;99.90
15749;DHT22;7976;52.526;13.326;2022-12-20T05:23:44;5.00;99.90
15749;DHT22;7976;52.526;13.326;2022-12-20T05:26:32;5.00;99.90
15749;DHT22;7976;52.526;13.326;2022-12-20T05:29:04;5.00;99.90
15749;DHT22;7976;52.526;13.326;2022-12-20T05:31:32;5.00;99.90
15749;DHT22;7976;52.526;13.326;2022-12-20T05:34:00;5.00;99.90
15749;DHT22;7976;52.526;13.326;2022-12-20T05:36:31;5.00;99.90
15749;DHT22;7976;52.526;13.326;2022-12-20T05:39:00;5.10;99.90
15749;DHT22;7976;52.526;13.326;2022-12-20T05:41:28;5.10;99.90
15749;DHT22;7976;52.526;13.326;2022-12-20T05:43:55;5.10;99.90
15749;DHT22;7976;52.526;13.326;2022-12-20T05:46:23;5.20;99.90
15749;DHT22;7976;52.526;13.326;2022-12-20T05:48:55;5.20;99.90
15749;DHT22;7976;52.526;13.326;2022-12-20T05:51:22;5.20;99.90
15749;DHT22;7976;52.526;13.326;2022-12-20T05:53:54;5.20;99.90
15749;DHT22;7976;52.526;13.326;2022-12-20T05:56:34;5.20;99.90
15749;DHT22;7976;52.526;13.326;2022-12-20T05:59:02;5.20;99.90
15749;DHT22;7976;52.526;13.326;2022-12-20T06:01:30;5.30;99.90
15749;DHT22;7976;52.526;13.326;2022-12-20T06:03:59;5.30;99.90
15749;DHT22;7976;52.526;13.326;2022-12-20T06:06:25;5.30;99.90
15749;DHT22;7976;52.526;13.326;2022-12-20T06:08:52;5.40;99.90
15749;DHT22;7976;52.526;13.326;2022-12-20T06:11:30;5.40;99.90
15749;DHT22;7976;52.526;13.326;2022-12-20T06:14:02;5.40;99.90
15749;DHT22;7976;52.526;13.326;2022-12-20T06:16:30;5.40;99.90
15749;DHT22;7976;52.526;13.326;2022-12-20T06:18:57;5.40;99.90
15749;DHT22;7976;52.526;13.326;2022-12-20T06:21:25;5.40;99.90
15749;DHT22;7976;52.526;13.326;2022-12-20T06:23:53;5.40;99.90
15749;DHT22;7976;52.526;13.326;2022-12-20T06:26:21;5.40;99.90
15749;DHT22;7976;52.526;13.326;2022-12-20T06:28:49;5.40;99.90
15749;DHT22;7976;52.526;13.326;2022-12-20T06:31:28;5.50;99.90
15749;DHT22;7976;52.526;13.326;2022-12-20T06:33:57;5.50;99.90
15749;DHT22;7976;52.526;13.326;2022-12-20T06:36:28;5.50;99.90
15749;DHT22;7976;52.526;13.326;2022-12-20T06:38:55;5.50;99.90
15749;DHT22;7976;52.526;13.326;2022-12-20T06:41:22;5.50;99.90
15749;DHT22;7976;52.526;13.326;2022-12-20T06:43:50;5.50;99.90
15749;DHT22;7976;52.526;13.326;2022-12-20T06:46:17;5.50;99.90
15749;DHT22;7976;52.526;13.326;2022-12-20T06:48:46;5.50;99.90
15749;DHT22;7976;52.526;13.326;2022-12-20T06:51:13;5.40;99.90
15749;DHT22;7976;52.526;13.326;2022-12-20T06:53:41;5.40;99.90
15749;DHT22;7976;52.526;13.326;2022-12-20T06:56:08;5.40;99.90
15749;DHT22;7976;52.526;13.326;2022-12-20T06:58:35;5.40;99.90
15749;DHT22;7976;52.526;13.326;2022-12-20T07:01:02;5.40;99.90
15749;DHT22;7976;52.526;13.326;2022-12-20T07:03:29;5.40;99.90
15749;DHT22;7976;52.526;13.326;2022-12-20T07:05:57;5.50;99.90
15749;DHT22;7976;52.526;13.326;2022-12-20T07:08:24;5.50;99.90
15749;DHT22;7976;52.526;13.326;2022-12-20T07:10:51;5.50;99.90
15749;DHT22;7976;52.526;13.326;2022-12-20T07:13:19;5.50;99.90
15749;DHT22;7976;52.526;13.326;2022-12-20T07:15:46;5.60;99.90
15749;DHT22;7976;52.526;13.326;2022-12-20T07:18:12;5.50;99.90
15749;DHT22;7976;52.526;13.326;2022-12-20T07:20:40;5.60;99.90
15749;DHT22;7976;52.526;13.326;2022-12-20T07:23:08;5.60;99.90
15749;DHT22;7976;52.526;13.326;2022-12-20T07:25:34;5.60;99.90
15749;DHT22;7976;52.526;13.326;2022-12-20T07:28:01;5.60;99.90
15749;DHT22;7976;52.526;13.326;2022-12-20T07:30:28;5.60;99.90
15749;DHT22;7976;52.526;13.326;2022-12-20T07:32:55;5.60;99.90
15749;DHT22;7976;52.526;13.326;2022-12-20T07:35:23;5.70;99.90
15749;DHT22;7976;52.526;13.326;2022-12-20T07:37:49;5.70;99.90
15749;DHT22;7976;52.526;13.326;2022-12-20T07:40:18;5.70;99.90
15749;DHT22;7976;52.526;13.326;2022-12-20T07:42:45;5.70;99.90
15749;DHT22;7976;52.526;13.326;2022-12-20T07:45:11;5.70;99.90
15749;DHT22;7976;52.526;13.326;2022-12-20T07:47:39;5.80;99.90
15749;DHT22;7976;52.526;13.326;2022-12-20T07:50:07;5.80;99.90
15749;DHT22;7976;52.526;13.326;2022-12-20T07:52:35;5.90;99.90
15749;DHT22;7976;52.526;13.326;2022-12-20T07:55:06;5.90;99.90
15749;DHT22;7976;52.526;13.326;2022-12-20T07:57:38;5.90;99.90
15749;DHT22;7976;52.526;13.326;2022-12-20T08:00:09;5.90;99.90
15749;DHT22;7976;52.526;13.326;2022-12-20T08:02:42;5.90;99.90
15749;DHT22;7976;52.526;13.326;2022-12-20T08:05:13;5.90;99.90
15749;DHT22;7976;52.526;13.326;2022-12-20T08:07:42;5.90;99.90
15749;DHT22;7976;52.526;13.326;2022-12-20T08:10:13;5.90;99.90
15749;DHT22;7976;52.526;13.326;2022-12-20T08:12:46;5.90;99.90
15749;DHT22;7976;52.526;13.326;2022-12-20T08:15:15;6.00;99.90
15749;DHT22;7976;52.526;13.326;2022-12-20T08:17:42;6.00;99.90
15749;DHT22;7976;52.526;13.326;2022-12-20T08:20:09;6.00;99.90
15749;DHT22;7976;52.526;13.326;2022-12-20T08:22:37;6.00;99.90
15749;DHT22;7976;52.526;13.326;2022-12-20T08:25:04;6.00;99.90
15749;DHT22;7976;52.526;13.326;2022-12-20T08:27:32;6.00;99.90
15749;DHT22;7976;52.526;13.326;2022-12-20T08:30:00;6.00;99.90
15749;DHT22;7976;52.526;13.326;2022-12-20T08:32:27;6.00;99.90
15749;DHT22;7976;52.526;13.326;2022-12-20T08:34:54;6.00;99.90
15749;DHT22;7976;52.526;13.326;2022-12-20T08:37:20;6.00;99.90
15749;DHT22;7976;52.526;13.326;2022-12-20T08:39:47;6.00;99.90
15749;DHT22;7976;52.526;13.326;2022-12-20T08:42:14;6.00;99.90
15749;DHT22;7976;52.526;13.326;2022-12-20T08:44:41;6.00;99.90
15749;DHT22;7976;52.526;13.326;2022-12-20T08:47:09;6.10;99.90
15749;DHT22;7976;52.526;13.326;2022-12-20T08:49:36;6.10;99.90
15749;DHT22;7976;52.526;13.326;2022-12-20T08:52:03;6.10;99.90
15749;DHT22;7976;52.526;13.326;2022-12-20T08:54:30;6.20;99.90
15749;DHT22;7976;52.526;13.326;2022-12-20T08:56:57;6.20;99.90
15749;DHT22;7976;52.526;13.326;2022-12-20T08:59:24;6.20;99.90
15749;DHT22;7976;52.526;13.326;2022-12-20T09:01:51;6.20;99.90
15749;DHT22;7976;52.526;13.326;2022-12-20T09:04:20;6.20;99.90
15749;DHT22;7976;52.526;13.326;2022-12-20T09:06:47;6.20;99.90
15749;DHT22;7976;52.526;13.326;2022-12-20T09:09:14;6.20;99.90
15749;DHT22;7976;52.526;13.326;2022-12-20T09:11:40;6.30;99.90
15749;DHT22;7976;52.526;13.326;2022-12-20T09:14:08;6.30;99.90
15749;DHT22;7976;52.526;13.326;2022-12-20T09:16:36;6.30;99.90
15749;DHT22;7976;52.526;13.326;2022-12-20T09:19:04;6.30;99.90
15749;DHT22;7976;52.526;13.326;2022-12-20T09:21:33;6.30;99.90
15749;DHT22;7976;52.526;13.326;2022-12-20T09:24:00;6.40;99.90
15749;DHT22;7976;52.526;13.326;2022-12-20T09:26:27;6.40;99.90
15749;DHT22;7976;52.526;13.326;2022-12-20T09:28:55;6.50;99.90
15749;DHT22;7976;52.526;13.326;2022-12-20T09:31:24;6.50;99.90
15749;DHT22;7976;52.526;13.326;2022-12-20T09:33:52;6.60;99.90
15749;DHT22;7976;52.526;13.326;2022-12-20T09:36:22;6.70;99.90
15749;DHT22;7976;52.526;13.326;2022-12-20T09:38:53;6.80;99.90
15749;DHT22;7976;52.526;13.326;2022-12-20T09:41:28;6.90;99.90
15749;DHT22;7976;52.526;13.326;2022-12-20T09:44:03;7.00;99.90
15749;DHT22;7976;52.526;13.326;2022-12-20T09:46:33;7.10;99.90
15749;DHT22;7976;52.526;13.326;2022-12-20T09:49:00;7.20;99.90
15749;DHT22;7976;52.526;13.326;2022-12-20T09:54:40;7.40;99.90
15749;DHT22;7976;52.526;13.326;2022-12-20T09:57:20;7.40;99.90
15749;DHT22;7976;52.526;13.326;2022-12-20T09:59:55;7.50;99.90
15749;DHT22;7976;52.526;13.326;2022-12-20T10:02:24;7.40;99.90
15749;DHT22;7976;52.526;13.326;2022-12-20T10:04:52;7.50;99.90
15749;DHT22;7976;52.526;13.326;2022-12-20T10:07:28;7.50;99.90
15749;DHT22;7976;52.526;13.326;2022-12-20T10:10:34;7.50;99.90
15749;DHT22;7976;52.526;13.326;2022-12-20T10:13:25;7.50;99.90
15749;DHT22;7976;52.526;13.326;2022-12-20T10:16:09;7.60;99.90
15749;DHT22;7976;52.526;13.326;2022-12-20T10:18:56;7.70;99.90
15749;DHT22;7976;52.526;13.326;2022-12-20T10:21:44;7.70;99.90
15749;DHT22;7976;52.526;13.326;2022-12-20T10:24:19;7.70;99.90
15749;DHT22;7976;52.526;13.326;2022-12-20T10:26:52;7.70;99.90
15749;DHT22;7976;52.526;13.326;2022-12-20T10:29:19;7.70;99.90
15749;DHT22;7976;52.526;13.326;2022-12-20T10:31:48;7.60;99.90
15749;DHT22;7976;52.526;13.326;2022-12-20T10:34:18;7.60;99.90
15749;DHT22;7976;52.526;13.326;2022-12-20T10:36:45;7.60;99.90
15749;DHT22;7976;52.526;13.326;2022-12-20T10:39:14;7.60;99.90
15749;DHT22;7976;52.526;13.326;2022-12-20T10:41:48;7.50;99.90
15749;DHT22;7976;52.526;13.326;2022-12-20T10:44:22;7.60;99.90
15749;DHT22;7976;52.526;13.326;2022-12-20T10:46:53;7.60;99.90
15749;DHT22;7976;52.526;13.326;2022-12-20T10:49:32;7.60;99.90
15749;DHT22;7976;52.526;13.326;2022-12-20T10:52:02;7.60;99.90
15749;DHT22;7976;52.526;13.326;2022-12-20T10:54:38;7.60;99.90
15749;DHT22;7976;52.526;13.326;2022-12-20T10:57:16;7.80;99.90
15749;DHT22;7976;52.526;13.326;2022-12-20T10:59:49;7.80;99.90
15749;DHT22;7976;52.526;13.326;2022-12-20T11:02:27;7.90;99.90
15749;DHT22;7976;52.526;13.326;2022-12-20T11:04:59;7.90;99.90
15749;DHT22;7976;52.526;13.326;2022-12-20T11:07:29;8.00;99.90
15749;DHT22;7976;52.526;13.326;2022-12-20T11:09:59;8.00;99.90
15749;DHT22;7976;52.526;13.326;2022-12-20T11:12:27;8.00;99.90
15749;DHT22;7976;52.526;13.326;2022-12-20T11:15:08;8.10;99.90
15749;DHT22;7976;52.526;13.326;2022-12-20T11:17:50;8.10;99.90
15749;DHT22;7976;52.526;13.326;2022-12-20T11:20:30;8.10;99.90
15749;DHT22;7976;52.526;13.326;2022-12-20T11:23:14;8.10;99.90
15749;DHT22;7976;52.526;13.326;2022-12-20T11:26:06;8.10;99.90
15749;DHT22;7976;52.526;13.326;2022-12-20T11:28:56;8.10;99.90
15749;DHT22;7976;52.526;13.326;2022-12-20T11:31:42;8.10;99.90
15749;DHT22;7976;52.526;13.326;2022-12-20T11:34:26;8.20;99.90
15749;DHT22;7976;52.526;13.326;2022-12-20T11:37:17;8.20;99.90
15749;DHT22;7976;52.526;13.326;2022-12-20T11:40:01;8.20;99.90
15749;DHT22;7976;52.526;13.326;2022-12-20T11:42:51;8.30;99.90
15749;DHT22;7976;52.526;13.326;2022-12-20T11:45:30;8.30;99.90
15749;DHT22;7976;52.526;13.326;2022-12-20T11:48:29;8.40;99.90
15749;DHT22;7976;52.526;13.326;2022-12-20T11:51:11;8.50;99.90
15749;DHT22;7976;52.526;13.326;2022-12-20T11:53:51;8.50;99.90
15749;DHT22;7976;52.526;13.326;2022-12-20T11:56:26;8.50;99.90
15749;DHT22;7976;52.526;13.326;2022-12-20T11:59:02;8.50;99.90
15749;DHT22;7976;52.526;13.326;2022-12-20T12:01:37;8.50;99.90
15749;DHT22;7976;52.526;13.326;2022-12-20T12:04:17;8.50;99.90
15749;DHT22;7976;52.526;13.326;2022-12-20T12:06:51;8.50;99.90
15749;DHT22;7976;52.526;13.326;2022-12-20T12:09:25;8.60;99.90
15749;DHT22;7976;52.526;13.326;2022-12-20T12:12:01;8.60;99.90
15749;DHT22;7976;52.526;13.326;2022-12-20T12:14:45;8.70;99.90
15749;DHT22;7976;52.526;13.326;2022-12-20T12:17:23;8.70;99.90
15749;DHT22;7976;52.526;13.326;2022-12-20T12:20:20;8.70;99.90
15749;DHT22;7976;52.526;13.326;2022-12-20T12:22:56;8.70;99.90
15749;DHT22;7976;52.526;13.326;2022-12-20T12:25:28;8.70;99.90
15749;DHT22;7976;52.526;13.326;2022-12-20T12:27:55;8.70;99.90
15749;DHT22;7976;52.526;13.326;2022-12-20T12:30:22;8.70;99.90
15749;DHT22;7976;52.526;13.326;2022-12-20T12:32:53;8.70;99.90
15749;DHT22;7976;52.526;13.326;2022-12-20T12:35:45;8.70;99.90
15749;DHT22;7976;52.526;13.326;2022-12-20T12:38:37;8.70;99.90
15749;DHT22;7976;52.526;13.326;2022-12-20T12:41:50;8.60;99.90
15749;DHT22;7976;52.526;13.326;2022-12-20T12:44:42;8.60;99.90
15749;DHT22;7976;52.526;13.326;2022-12-20T12:47:20;8.60;99.90
15749;DHT22;7976;52.526;13.326;2022-12-20T12:49:54;8.60;99.90
15749;DHT22;7976;52.526;13.326;2022-12-20T12:52:34;8.60;99.90
15749;DHT22;7976;52.526;13.326;2022-12-20T12:55:35;8.60;99.90
15749;DHT22;7976;52.526;13.326;2022-12-20T13:01:11;8.60;99.90
15749;DHT22;7976;52.526;13.326;2022-12-20T13:03:43;8.60;99.90
15749;DHT22;7976;52.526;13.326;2022-12-20T13:09:47;8.60;99.90
15749;DHT22;7976;52.526;13.326;2022-12-20T13:15:49;8.60;99.90
15749;DHT22;7976;52.526;13.326;2022-12-20T13:18:22;8.60;99.90
15749;DHT22;7976;52.526;13.326;2022-12-20T13:21:27;8.50;99.90
15749;DHT22;7976;52.526;13.326;2022-12-20T13:24:34;8.50;99.90
15749;DHT22;7976;52.526;13.326;2022-12-20T13:27:17;8.40;99.90
15749;DHT22;7976;52.526;13.326;2022-12-20T13:29:58;8.40;99.90
15749;DHT22;7976;52.526;13.326;2022-12-20T13:32:56;8.30;99.90
15749;DHT22;7976;52.526;13.326;2022-12-20T13:35:42;8.30;99.90
15749;DHT22;7976;52.526;13.326;2022-12-20T13:38:38;8.30;99.90
15749;DHT22;7976;52.526;13.326;2022-12-20T13:41:33;8.30;99.90
15749;DHT22;7976;52.526;13.326;2022-12-20T13:44:18;8.30;99.90
15749;DHT22;7976;52.526;13.326;2022-12-20T13:47:01;8.30;99.90
15749;DHT22;7976;52.526;13.326;2022-12-20T13:49:39;8.30;99.90
15749;DHT22;7976;52.526;13.326;2022-12-20T13:52:22;8.30;99.90
15749;DHT22;7976;52.526;13.326;2022-12-20T13:54:55;8.30;99.90
15749;DHT22;7976;52.526;13.326;2022-12-20T13:57:30;8.30;99.90
15749;DHT22;7976;52.526;13.326;2022-12-20T14:00:15;8.30;99.90
15749;DHT22;7976;52.526;13.326;2022-12-20T14:02:44;8.20;99.90
15749;DHT22;7976;52.526;13.326;2022-12-20T14:05:16;8.20;99.90
15749;DHT22;7976;52.526;13.326;2022-12-20T14:07:47;8.20;99.90
15749;DHT22;7976;52.526;13.326;2022-12-20T14:10:24;8.10;99.90
15749;DHT22;7976;52.526;13.326;2022-12-20T14:12:54;8.10;99.90
15749;DHT22;7976;52.526;13.326;2022-12-20T14:15:25;8.10;99.90
15749;DHT22;7976;52.526;13.326;2022-12-20T14:17:54;8.10;99.90
15749;DHT22;7976;52.526;13.326;2022-12-20T14:20:28;8.10;99.90
15749;DHT22;7976;52.526;13.326;2022-12-20T14:23:01;8.10;99.90
15749;DHT22;7976;52.526;13.326;2022-12-20T14:25:34;8.10;99.90
15749;DHT22;7976;52.526;13.326;2022-12-20T14:28:04;8.10;99.90
15749;DHT22;7976;52.526;13.326;2022-12-20T14:30:43;8.10;99.90
15749;DHT22;7976;52.526;13.326;2022-12-20T14:33:18;8.10;99.90
15749;DHT22;7976;52.526;13.326;2022-12-20T14:35:49;8.00;99.90
15749;DHT22;7976;52.526;13.326;2022-12-20T14:38:21;8.10;99.90
15749;DHT22;7976;52.526;13.326;2022-12-20T14:40:50;8.10;99.90
15749;DHT22;7976;52.526;13.326;2022-12-20T14:43:25;8.10;99.90
15749;DHT22;7976;52.526;13.326;2022-12-20T14:46:12;8.10;99.90
15749;DHT22;7976;52.526;13.326;2022-12-20T14:48:43;8.00;99.90
15749;DHT22;7976;52.526;13.326;2022-12-20T14:51:11;8.00;99.90
15749;DHT22;7976;52.526;13.326;2022-12-20T14:53:45;8.00;99.90
15749;DHT22;7976;52.526;13.326;2022-12-20T14:56:16;8.00;99.90
15749;DHT22;7976;52.526;13.326;2022-12-20T14:58:45;8.00;99.90
15749;DHT22;7976;52.526;13.326;2022-12-20T15:01:20;8.00;99.90
15749;DHT22;7976;52.526;13.326;2022-12-20T15:03:52;8.00;99.90
15749;DHT22;7976;52.526;13.326;2022-12-20T15:06:40;8.00;99.90
15749;DHT22;7976;52.526;13.326;2022-12-20T15:09:10;7.90;99.90
15749;DHT22;7976;52.526;13.326;2022-12-20T15:11:37;7.90;99.90
15749;DHT22;7976;52.526;13.326;2022-12-20T15:14:18;7.90;99.90
15749;DHT22;7976;52.526;13.326;2022-12-20T15:16:53;7.90;99.90
15749;DHT22;7976;52.526;13.326;2022-12-20T15:19:20;7.90;99.90
15749;DHT22;7976;52.526;13.326;2022-12-20T15:21:47;7.80;99.90
15749;DHT22;7976;52.526;13.326;2022-12-20T15:24:16;7.80;99.90
15749;DHT22;7976;52.526;13.326;2022-12-20T15:26:47;7.70;99.90
15749;DHT22;7976;52.526;13.326;2022-12-20T15:29:15;7.70;99.90
15749;DHT22;7976;52.526;13.326;2022-12-20T15:31:43;7.70;99.90
15749;DHT22;7976;52.526;13.326;2022-12-20T15:34:17;7.60;99.90
15749;DHT22;7976;52.526;13.326;2022-12-20T15:36:46;7.60;99.90
15749;DHT22;7976;52.526;13.326;2022-12-20T15:39:13;7.60;99.90
15749;DHT22;7976;52.526;13.326;2022-12-20T15:41:42;7.60;99.90
15749;DHT22;7976;52.526;13.326;2022-12-20T15:44:13;7.60;99.90
15749;DHT22;7976;52.526;13.326;2022-12-20T15:46:42;7.60;99.90
15749;DHT22;7976;52.526;13.326;2022-12-20T15:49:15;7.60;99.90
15749;DHT22;7976;52.526;13.326;2022-12-20T15:51:43;7.60;99.90
15749;DHT22;7976;52.526;13.326;2022-12-20T15:54:20;7.60;99.90
15749;DHT22;7976;52.526;13.326;2022-12-20T15:56:51;7.60;99.90
15749;DHT22;7976;52.526;13.326;2022-12-20T15:59:18;7.50;99.90
15749;DHT22;7976;52.526;13.326;2022-12-20T16:01:45;7.50;99.90
15749;DHT22;7976;52.526;13.326;2022-12-20T16:04:15;7.50;99.90
15749;DHT22;7976;52.526;13.326;2022-12-20T16:06:46;7.50;99.90
15749;DHT22;7976;52.526;13.326;2022-12-20T16:09:14;7.50;99.90
15749;DHT22;7976;52.526;13.326;2022-12-20T16:11:42;7.50;99.90
15749;DHT22;7976;52.526;13.326;2022-12-20T16:14:12;7.40;99.90
15749;DHT22;7976;52.526;13.326;2022-12-20T16:16:41;7.40;99.90
15749;DHT22;7976;52.526;13.326;2022-12-20T16:19:09;7.40;99.90
15749;DHT22;7976;52.526;13.326;2022-12-20T16:21:42;7.40;99.90
15749;DHT22;7976;52.526;13.326;2022-12-20T16:24:13;7.40;99.90
15749;DHT22;7976;52.526;13.326;2022-12-20T16:26:56;7.40;99.90
15749;DHT22;7976;52.526;13.326;2022-12-20T16:29:23;7.40;99.90
15749;DHT22;7976;52.526;13.326;2022-12-20T16:31:50;7.40;99.90
15749;DHT22;7976;52.526;13.326;2022-12-20T16:34:17;7.40;99.90